createdAt,value
2022-12-31T00:00:07.740Z,7.13
2022-12-31T00:02:36.191Z,9.25
2022-12-31T00:05:04.484Z,6.57
2022-12-31T00:10:05.168Z,13.60
2022-12-31T00:12:32.591Z,8.45
2022-12-31T00:14:59.967Z,8.65
2022-12-31T00:17:27.363Z,7.25
2022-12-31T00:19:54.713Z,6.20
2022-12-31T00:22:22.130Z,7.57
2022-12-31T00:24:49.500Z,10.07
2022-12-31T00:27:16.961Z,4.88
2022-12-31T00:29:44.326Z,6.97
2022-12-31T00:32:11.664Z,9.40
2022-12-31T00:34:39.079Z,6.20
2022-12-31T00:37:06.484Z,8.50
2022-12-31T00:39:33.865Z,15.43
2022-12-31T00:42:01.207Z,8.82
2022-12-31T00:44:28.534Z,12.40
2022-12-31T00:46:55.907Z,6.53
2022-12-31T00:49:23.276Z,7.63
2022-12-31T00:51:50.719Z,8.10
2022-12-31T00:54:18.060Z,4.22
2022-12-31T00:56:45.418Z,10.45
2022-12-31T00:59:12.807Z,5.57
2022-12-31T01:01:40.989Z,8.13
2022-12-31T01:04:18.094Z,7.22
2022-12-31T01:06:46.506Z,8.50
2022-12-31T01:09:15.382Z,9.73
2022-12-31T01:11:43.324Z,11.88
2022-12-31T01:14:16.195Z,9.43
2022-12-31T01:16:46.307Z,4.68
2022-12-31T01:19:26.479Z,10.33
2022-12-31T01:21:54.557Z,6.97
2022-12-31T01:24:22.055Z,9.07
2022-12-31T01:26:50.885Z,10.18
2022-12-31T01:29:18.915Z,12.68
2022-12-31T01:31:46.544Z,8.38
2022-12-31T01:34:14.008Z,7.45
2022-12-31T01:36:41.348Z,7.88
2022-12-31T01:39:09.310Z,5.82
2022-12-31T01:41:40.141Z,8.63
2022-12-31T01:44:13.240Z,8.63
2022-12-31T01:47:00.849Z,8.10
2022-12-31T01:49:40.887Z,7.50
2022-12-31T01:52:19.966Z,8.15
2022-12-31T01:54:59.534Z,7.65
2022-12-31T01:57:27.610Z,9.75
2022-12-31T01:59:56.360Z,8.07
2022-12-31T02:02:23.966Z,7.32
2022-12-31T02:04:55.463Z,10.95
2022-12-31T02:07:23.246Z,7.80
2022-12-31T02:09:50.765Z,11.02
2022-12-31T02:12:18.171Z,11.57
2022-12-31T02:14:50.555Z,10.27
2022-12-31T02:17:32.955Z,11.40
2022-12-31T02:20:27.620Z,7.05
2022-12-31T02:23:31.715Z,8.05
2022-12-31T02:26:29.336Z,13.82
2022-12-31T02:29:34.851Z,8.45
2022-12-31T02:32:31.906Z,9.57
2022-12-31T02:35:18.680Z,14.60
2022-12-31T02:37:50.328Z,9.93
2022-12-31T02:40:21.121Z,15.35
2022-12-31T02:42:54.918Z,9.40
2022-12-31T02:45:30.384Z,9.10
2022-12-31T02:48:31.048Z,7.75
2022-12-31T02:51:12.337Z,11.18
2022-12-31T02:54:00.307Z,13.85
2022-12-31T02:56:39.341Z,7.85
2022-12-31T02:59:44.818Z,8.13
2022-12-31T03:02:16.937Z,9.95
2022-12-31T03:04:52.586Z,9.85
2022-12-31T03:07:31.979Z,13.18
2022-12-31T03:10:01.030Z,6.68
2022-12-31T03:12:49.260Z,5.70
2022-12-31T03:15:25.526Z,11.98
2022-12-31T03:18:14.785Z,4.90
2022-12-31T03:21:03.381Z,8.82
2022-12-31T03:23:42.283Z,7.93
2022-12-31T03:26:11.465Z,5.50
2022-12-31T03:28:41.500Z,15.60
2022-12-31T03:31:09.186Z,5.38
2022-12-31T03:33:40.002Z,2.20
2022-12-31T03:36:13.607Z,8.32
2022-12-31T03:38:41.527Z,8.27
2022-12-31T03:41:11.103Z,10.40
2022-12-31T03:43:38.691Z,4.55
2022-12-31T03:46:06.119Z,6.05
2022-12-31T03:48:33.468Z,4.30
2022-12-31T03:51:00.801Z,3.97
2022-12-31T03:53:28.138Z,6.53
2022-12-31T03:55:55.791Z,6.88
2022-12-31T03:58:23.311Z,4.57
2022-12-31T04:00:50.765Z,4.32
2022-12-31T04:03:18.524Z,4.05
2022-12-31T04:05:55.613Z,3.50
2022-12-31T04:08:23.881Z,3.33
2022-12-31T04:10:51.331Z,3.13
2022-12-31T04:13:18.819Z,4.85
2022-12-31T04:15:49.067Z,2.28
2022-12-31T04:18:16.598Z,4.30
2022-12-31T04:20:43.929Z,1.65
2022-12-31T04:23:11.261Z,0.85
2022-12-31T04:25:38.921Z,0.70
2022-12-31T04:28:06.307Z,1.23
2022-12-31T04:30:33.652Z,0.47
2022-12-31T04:33:01.001Z,0.70
2022-12-31T04:35:28.399Z,1.75
2022-12-31T04:37:55.750Z,0.88
2022-12-31T04:40:23.065Z,0.40
2022-12-31T04:42:50.393Z,1.85
2022-12-31T04:45:17.794Z,1.45
2022-12-31T04:47:45.308Z,1.73
2022-12-31T04:50:12.660Z,0.65
2022-12-31T04:52:42.947Z,1.75
2022-12-31T04:55:11.228Z,1.88
2022-12-31T04:57:38.880Z,2.20
2022-12-31T05:00:06.871Z,3.72
2022-12-31T05:02:34.378Z,2.83
2022-12-31T05:05:01.855Z,3.13
2022-12-31T05:07:29.325Z,4.63
2022-12-31T05:09:56.652Z,2.78
2022-12-31T05:12:24.004Z,3.85
2022-12-31T05:14:51.345Z,6.05
2022-12-31T05:17:20.711Z,4.25
2022-12-31T05:19:48.048Z,6.93
2022-12-31T05:22:30.743Z,8.13
2022-12-31T05:24:59.292Z,7.60
2022-12-31T05:27:28.129Z,9.25
2022-12-31T05:29:55.577Z,9.52
2022-12-31T05:32:22.940Z,11.55
2022-12-31T05:34:50.320Z,14.27
2022-12-31T05:37:17.647Z,9.45
2022-12-31T05:39:45.051Z,14.48
2022-12-31T05:42:12.397Z,20.08
2022-12-31T05:44:39.781Z,15.05
2022-12-31T05:47:07.158Z,16.05
2022-12-31T05:49:34.574Z,17.38
2022-12-31T05:52:02.068Z,11.38
2022-12-31T05:54:29.503Z,7.72
2022-12-31T05:56:56.942Z,15.32
2022-12-31T05:59:24.532Z,11.35
2022-12-31T06:01:52.037Z,11.50
2022-12-31T06:04:19.398Z,9.70
2022-12-31T06:06:46.816Z,20.73
2022-12-31T06:09:15.493Z,14.18
2022-12-31T06:11:43.292Z,7.93
2022-12-31T06:14:10.835Z,10.35
2022-12-31T06:16:40.006Z,9.32
2022-12-31T06:19:07.787Z,14.15
2022-12-31T06:21:35.487Z,13.00
2022-12-31T06:24:02.894Z,14.85
2022-12-31T06:26:30.236Z,17.33
2022-12-31T06:28:57.579Z,16.77
2022-12-31T06:31:25.009Z,10.27
2022-12-31T06:33:52.460Z,15.90
2022-12-31T06:36:21.873Z,21.95
2022-12-31T06:38:49.802Z,12.93
2022-12-31T06:41:18.401Z,16.98
2022-12-31T06:43:46.166Z,14.50
2022-12-31T06:46:16.608Z,21.27
2022-12-31T06:48:44.997Z,17.33
2022-12-31T06:51:18.913Z,13.18
2022-12-31T06:53:48.344Z,16.02
2022-12-31T06:56:31.306Z,10.60
2022-12-31T06:59:01.025Z,19.95
2022-12-31T07:01:49.371Z,20.77
2022-12-31T07:04:49.695Z,22.15
2022-12-31T07:07:39.902Z,15.82
2022-12-31T07:10:36.745Z,17.63
2022-12-31T07:13:15.888Z,24.23
2022-12-31T07:16:11.298Z,19.15
2022-12-31T07:19:01.779Z,18.20
2022-12-31T07:21:38.428Z,15.40
2022-12-31T07:24:10.604Z,9.57
2022-12-31T07:27:01.845Z,8.80
2022-12-31T07:29:47.584Z,15.60
2022-12-31T07:32:23.667Z,15.10
2022-12-31T07:35:04.414Z,14.40
2022-12-31T07:38:00.530Z,12.27
2022-12-31T07:40:36.300Z,9.40
2022-12-31T07:43:15.864Z,8.98
2022-12-31T07:46:06.421Z,7.10
2022-12-31T07:48:34.131Z,15.98
2022-12-31T07:51:01.856Z,12.90
2022-12-31T07:53:29.557Z,7.50
2022-12-31T07:56:00.040Z,4.60
2022-12-31T07:58:51.096Z,12.95
2022-12-31T08:01:30.665Z,8.88
2022-12-31T08:04:38.123Z,8.05
2022-12-31T08:07:47.259Z,10.55
2022-12-31T08:10:45.458Z,13.10
2022-12-31T08:13:13.069Z,10.23
2022-12-31T08:15:41.217Z,6.95
2022-12-31T08:18:08.838Z,13.07
2022-12-31T08:20:54.417Z,11.95
2022-12-31T08:23:28.295Z,15.07
2022-12-31T08:26:05.028Z,9.35
2022-12-31T08:28:52.631Z,22.85
2022-12-31T08:31:27.112Z,12.95
2022-12-31T08:34:05.983Z,14.52
2022-12-31T08:36:47.893Z,15.70
2022-12-31T08:39:29.978Z,18.83
2022-12-31T08:41:58.726Z,12.15
2022-12-31T08:45:02.187Z,17.33
2022-12-31T08:47:56.463Z,13.95
2022-12-31T08:50:27.994Z,17.27
2022-12-31T08:52:55.668Z,16.70
2022-12-31T08:55:24.924Z,12.10
2022-12-31T08:58:01.342Z,15.63
2022-12-31T09:00:30.078Z,12.95
2022-12-31T09:03:13.279Z,17.63
2022-12-31T09:05:58.221Z,18.95
2022-12-31T09:08:31.673Z,16.20
2022-12-31T09:11:23.445Z,19.65
2022-12-31T09:14:26.083Z,14.52
2022-12-31T09:17:04.589Z,16.52
2022-12-31T09:19:32.011Z,24.05
2022-12-31T09:21:59.601Z,15.23
2022-12-31T09:24:27.323Z,12.02
2022-12-31T09:27:11.630Z,16.98
2022-12-31T09:30:08.555Z,14.00
2022-12-31T09:32:46.252Z,10.35
2022-12-31T09:35:20.054Z,23.33
2022-12-31T09:37:50.008Z,15.40
2022-12-31T09:40:29.125Z,18.45
2022-12-31T09:43:05.234Z,18.60
2022-12-31T09:45:56.872Z,25.50
2022-12-31T09:48:45.724Z,17.98
2022-12-31T09:51:25.324Z,18.75
2022-12-31T09:54:32.809Z,16.25
2022-12-31T09:57:35.882Z,14.88
2022-12-31T10:00:10.970Z,9.98
2022-12-31T10:03:00.867Z,16.63
2022-12-31T10:05:45.906Z,17.75
2022-12-31T10:08:40.701Z,12.90
2022-12-31T10:11:39.723Z,20.90
2022-12-31T10:14:38.933Z,22.10
2022-12-31T10:17:12.600Z,18.70
2022-12-31T10:19:45.217Z,11.70
2022-12-31T10:22:51.118Z,14.65
2022-12-31T10:25:38.943Z,23.85
2022-12-31T10:28:30.950Z,14.43
2022-12-31T10:33:59.219Z,12.07
2022-12-31T10:36:30.814Z,14.73
2022-12-31T10:39:45.521Z,10.50
2022-12-31T10:42:37.467Z,16.45
2022-12-31T10:45:23.568Z,14.57
2022-12-31T10:48:03.993Z,14.13
2022-12-31T10:50:46.053Z,18.67
2022-12-31T10:53:31.136Z,13.80
2022-12-31T10:56:22.165Z,8.95
2022-12-31T10:59:11.264Z,8.10
2022-12-31T11:02:03.160Z,9.80
2022-12-31T11:04:45.341Z,14.93
2022-12-31T11:07:18.827Z,14.23
2022-12-31T11:10:03.617Z,13.23
2022-12-31T11:12:49.715Z,19.58
2022-12-31T11:15:36.534Z,12.32
2022-12-31T11:18:39.567Z,5.50
2022-12-31T11:21:21.673Z,6.90
2022-12-31T11:23:59.168Z,8.05
2022-12-31T11:27:01.368Z,5.95
2022-12-31T11:29:38.285Z,3.67
2022-12-31T11:32:28.969Z,6.07
2022-12-31T11:35:01.839Z,6.32
2022-12-31T11:37:32.456Z,4.88
2022-12-31T11:40:27.615Z,4.22
2022-12-31T11:42:58.804Z,4.80
2022-12-31T11:45:50.922Z,5.88
2022-12-31T11:48:46.148Z,3.67
2022-12-31T11:51:27.828Z,3.38
2022-12-31T11:54:27.984Z,3.72
2022-12-31T11:57:23.363Z,3.22
2022-12-31T12:00:20.285Z,2.25
2022-12-31T12:02:50.738Z,4.88
2022-12-31T12:05:24.473Z,1.42
2022-12-31T12:07:52.440Z,6.72
2022-12-31T12:10:31.977Z,0.98
2022-12-31T12:13:30.715Z,2.08
2022-12-31T12:16:00.647Z,1.95
2022-12-31T12:18:47.350Z,3.42
2022-12-31T12:21:17.436Z,5.78
2022-12-31T12:24:05.325Z,2.67
2022-12-31T12:26:41.707Z,2.05
2022-12-31T12:29:16.251Z,1.48
2022-12-31T12:31:58.694Z,1.67
2022-12-31T12:34:37.534Z,4.60
2022-12-31T12:37:21.427Z,3.42
2022-12-31T12:39:57.272Z,4.53
2022-12-31T12:42:25.080Z,1.73
2022-12-31T12:45:11.134Z,4.85
2022-12-31T12:47:45.758Z,7.28
2022-12-31T12:50:42.074Z,5.80
2022-12-31T12:53:21.199Z,14.38
2022-12-31T12:56:02.932Z,11.85
2022-12-31T12:59:12.587Z,8.68
2022-12-31T13:01:52.029Z,9.05
2022-12-31T13:04:39.342Z,16.17
2022-12-31T13:07:22.126Z,11.52
2022-12-31T13:09:49.479Z,12.63
2022-12-31T13:12:56.865Z,14.63
2022-12-31T13:15:46.781Z,14.93
2022-12-31T13:18:32.462Z,8.77
2022-12-31T13:21:35.385Z,10.77
2022-12-31T13:24:22.834Z,12.45
2022-12-31T13:27:11.764Z,9.13
2022-12-31T13:29:41.391Z,7.15
2022-12-31T13:32:12.605Z,8.45
2022-12-31T13:34:44.336Z,18.63
2022-12-31T13:37:37.845Z,15.00
2022-12-31T13:40:31.869Z,16.70
2022-12-31T13:43:08.456Z,15.98
2022-12-31T13:45:43.074Z,19.20
2022-12-31T13:48:18.512Z,19.88
2022-12-31T13:51:00.512Z,23.50
2022-12-31T13:53:46.725Z,25.42
2022-12-31T13:56:19.932Z,14.90
2022-12-31T13:59:14.984Z,15.77
2022-12-31T14:01:57.874Z,11.23
2022-12-31T14:04:37.982Z,14.48
2022-12-31T14:07:21.173Z,24.27
2022-12-31T14:09:48.864Z,28.88
2022-12-31T14:12:32.799Z,19.85
2022-12-31T14:15:35.261Z,24.45
2022-12-31T14:18:14.887Z,14.80
2022-12-31T14:20:49.635Z,18.40
2022-12-31T14:23:44.778Z,13.55
2022-12-31T14:26:46.720Z,16.25
2022-12-31T14:29:41.278Z,20.63
2022-12-31T14:32:36.403Z,17.23
2022-12-31T14:35:23.925Z,18.55
2022-12-31T14:38:15.711Z,18.63
2022-12-31T14:41:12.038Z,19.33
2022-12-31T14:43:51.031Z,17.73
2022-12-31T14:46:39.800Z,14.80
2022-12-31T14:49:36.505Z,21.60
2022-12-31T14:52:15.605Z,27.77
2022-12-31T14:54:43.075Z,22.02
2022-12-31T14:57:21.576Z,22.17
2022-12-31T14:59:57.842Z,20.92
2022-12-31T15:02:34.753Z,24.10
2022-12-31T15:05:11.071Z,18.70
2022-12-31T15:07:52.625Z,24.55
2022-12-31T15:10:40.390Z,19.92
2022-12-31T15:13:27.408Z,20.48
2022-12-31T15:16:24.307Z,29.70
2022-12-31T15:18:57.733Z,22.15
2022-12-31T15:21:43.762Z,25.70
2022-12-31T15:24:26.925Z,36.22
2022-12-31T15:27:03.054Z,25.23
2022-12-31T15:29:32.411Z,37.15
2022-12-31T15:32:03.275Z,35.10
2022-12-31T15:37:06.794Z,45.17
2022-12-31T15:39:40.175Z,30.73
2022-12-31T15:42:43.369Z,32.95
2022-12-31T15:45:27.545Z,33.53
2022-12-31T15:48:00.845Z,39.17
2022-12-31T15:50:29.904Z,29.88
2022-12-31T15:53:02.725Z,34.25
2022-12-31T15:55:44.271Z,33.90
2022-12-31T15:58:15.705Z,34.22
2022-12-31T16:01:01.622Z,30.13
2022-12-31T16:03:31.762Z,36.97
2022-12-31T16:06:08.288Z,34.87
2022-12-31T16:08:36.088Z,27.45
2022-12-31T16:11:06.026Z,40.03
2022-12-31T16:13:36.606Z,30.45
2022-12-31T16:16:06.960Z,21.10
2022-12-31T16:18:41.409Z,45.33
2022-12-31T16:21:29.112Z,32.47
2022-12-31T16:24:00.004Z,28.02
2022-12-31T16:26:47.727Z,34.58
2022-12-31T16:29:18.010Z,35.78
2022-12-31T16:31:46.931Z,32.80
2022-12-31T16:34:21.972Z,44.13
2022-12-31T16:37:17.303Z,37.80
2022-12-31T16:39:56.950Z,42.67
2022-12-31T16:42:26.946Z,25.63
2022-12-31T16:44:56.024Z,39.42
2022-12-31T16:47:34.091Z,37.30
2022-12-31T16:50:16.891Z,36.40
2022-12-31T16:52:48.302Z,33.10
2022-12-31T16:55:21.755Z,36.08
2022-12-31T16:57:55.669Z,30.98
2022-12-31T17:00:25.371Z,38.50
2022-12-31T17:03:00.976Z,38.23
2022-12-31T17:05:28.767Z,32.03
2022-12-31T17:07:56.438Z,34.05
2022-12-31T17:10:23.798Z,29.30
2022-12-31T17:15:45.550Z,38.03
2022-12-31T17:18:25.502Z,35.22
2022-12-31T17:20:55.077Z,29.67
2022-12-31T17:23:33.508Z,38.95
2022-12-31T17:26:09.014Z,31.15
2022-12-31T17:28:48.441Z,30.13
2022-12-31T17:31:38.125Z,27.77
2022-12-31T17:34:14.539Z,37.70
2022-12-31T17:36:52.319Z,31.63
2022-12-31T17:39:22.889Z,24.42
2022-12-31T17:41:52.650Z,29.13
2022-12-31T17:44:23.649Z,33.97
2022-12-31T17:49:22.189Z,31.63
2022-12-31T17:51:49.537Z,30.25
2022-12-31T17:54:18.624Z,28.58
2022-12-31T17:56:46.285Z,25.65
2022-12-31T17:59:23.774Z,25.13
2022-12-31T18:01:51.525Z,29.17
2022-12-31T18:04:20.763Z,27.88
2022-12-31T18:06:48.254Z,27.10
2022-12-31T18:09:16.433Z,23.80
2022-12-31T18:11:45.021Z,29.20
2022-12-31T18:14:16.823Z,24.85
2022-12-31T18:16:44.426Z,23.17
2022-12-31T18:19:45.784Z,31.13
2022-12-31T18:22:03.348Z,27.17
2022-12-31T18:24:30.737Z,28.33
2022-12-31T18:26:58.170Z,26.65
2022-12-31T18:29:25.479Z,25.13
2022-12-31T18:31:53.901Z,25.20
2022-12-31T18:34:21.315Z,32.85
2022-12-31T18:36:48.676Z,30.20
2022-12-31T18:39:16.065Z,22.98
2022-12-31T18:41:51.193Z,23.13
2022-12-31T18:44:18.787Z,26.85
2022-12-31T18:46:46.109Z,25.10
2022-12-31T18:49:13.478Z,36.85
2022-12-31T18:51:40.911Z,20.45
2022-12-31T18:54:11.503Z,25.65
2022-12-31T18:56:44.821Z,33.80
2022-12-31T18:59:14.576Z,35.30
2022-12-31T19:01:42.271Z,23.30
2022-12-31T19:04:13.982Z,21.50
2022-12-31T19:06:41.429Z,21.48
2022-12-31T19:09:30.359Z,20.23
2022-12-31T19:11:56.381Z,19.83
2022-12-31T19:14:25.830Z,24.25
2022-12-31T19:16:54.532Z,23.15
2022-12-31T19:19:22.230Z,28.27
2022-12-31T19:21:49.566Z,28.90
2022-12-31T19:24:26.572Z,28.35
2022-12-31T19:26:54.874Z,28.63
2022-12-31T19:29:27.674Z,25.83
2022-12-31T19:31:55.255Z,21.73
2022-12-31T19:34:22.674Z,24.17
2022-12-31T19:36:50.017Z,22.35
2022-12-31T19:39:20.037Z,24.88
2022-12-31T19:41:56.581Z,24.02
2022-12-31T19:44:26.688Z,31.58
2022-12-31T19:46:54.267Z,23.20
2022-12-31T19:49:21.646Z,17.45
2022-12-31T19:51:49.003Z,19.13
2022-12-31T19:54:16.347Z,30.33
2022-12-31T19:56:43.713Z,30.20
2022-12-31T19:59:11.247Z,21.30
2022-12-31T20:01:38.857Z,24.23
2022-12-31T20:04:06.433Z,22.52
2022-12-31T20:06:33.922Z,19.92
2022-12-31T20:09:02.986Z,27.02
2022-12-31T20:11:30.420Z,25.23
2022-12-31T20:13:57.958Z,29.17
2022-12-31T20:16:31.638Z,34.47
2022-12-31T20:18:59.218Z,26.35
2022-12-31T20:21:28.310Z,23.88
2022-12-31T20:23:56.329Z,24.75
2022-12-31T20:26:24.446Z,28.75
2022-12-31T20:28:52.519Z,30.45
2022-12-31T20:31:22.872Z,27.20
2022-12-31T20:33:50.363Z,25.88
2022-12-31T20:36:18.249Z,27.65
2022-12-31T20:38:46.250Z,33.25
2022-12-31T20:41:23.350Z,27.23
2022-12-31T20:43:51.365Z,18.33
2022-12-31T20:46:21.896Z,25.45
2022-12-31T20:48:51.683Z,22.77
2022-12-31T20:51:20.047Z,22.88
2022-12-31T20:53:59.106Z,19.00
2022-12-31T20:56:29.020Z,21.80
2022-12-31T20:58:56.778Z,16.20
2022-12-31T21:01:25.596Z,18.45
2022-12-31T21:04:05.028Z,24.65
2022-12-31T21:06:35.389Z,19.15
2022-12-31T21:09:05.823Z,24.30
2022-12-31T21:11:52.823Z,13.48
2022-12-31T21:14:20.260Z,25.83
2022-12-31T21:16:47.663Z,16.98
2022-12-31T21:19:15.050Z,15.93
2022-12-31T21:21:42.603Z,12.05
2022-12-31T21:24:10.264Z,17.85
2022-12-31T21:26:37.691Z,19.55
2022-12-31T21:29:04.995Z,9.70
2022-12-31T21:31:32.415Z,17.52
2022-12-31T21:33:59.898Z,18.02
2022-12-31T21:36:27.293Z,13.70
2022-12-31T21:38:54.621Z,14.40
2022-12-31T21:41:40.353Z,11.15
2022-12-31T21:44:07.700Z,14.90
2022-12-31T21:46:35.123Z,8.75
2022-12-31T21:49:02.746Z,9.25
2022-12-31T21:51:30.354Z,15.15
2022-12-31T21:53:57.794Z,8.23
2022-12-31T21:56:25.620Z,8.95
2022-12-31T21:59:16.842Z,6.72
2022-12-31T22:02:02.979Z,6.95
2022-12-31T22:07:18.050Z,5.78
2022-12-31T22:09:45.395Z,11.00
2022-12-31T22:12:12.772Z,11.57
2022-12-31T22:15:14.846Z,8.80
2022-12-31T22:17:28.419Z,10.10
2022-12-31T22:22:43.078Z,7.13
2022-12-31T22:25:10.417Z,9.63
2022-12-31T22:27:37.781Z,7.45
2022-12-31T22:30:06.578Z,7.32
2022-12-31T22:32:33.985Z,10.82
2022-12-31T22:35:01.430Z,14.18
2022-12-31T22:37:55.765Z,10.52
2022-12-31T22:40:17.244Z,19.13
2022-12-31T22:42:45.757Z,9.27
2022-12-31T22:45:13.117Z,15.95
2022-12-31T22:47:40.539Z,11.57
2022-12-31T22:50:08.357Z,6.88
2022-12-31T22:52:35.729Z,17.88
2022-12-31T22:55:03.421Z,21.92
2022-12-31T22:57:30.844Z,8.40
2022-12-31T22:59:58.199Z,13.30
2022-12-31T23:02:25.732Z,9.40
2022-12-31T23:04:53.314Z,15.13
2022-12-31T23:07:40.812Z,6.43
2022-12-31T23:10:29.249Z,8.00
2022-12-31T23:12:56.649Z,14.25
2022-12-31T23:15:42.392Z,9.55
2022-12-31T23:18:28.272Z,15.38
2022-12-31T23:21:14.152Z,8.90
2022-12-31T23:23:41.508Z,8.77
2022-12-31T23:26:08.918Z,7.45
2022-12-31T23:28:36.449Z,12.30
2022-12-31T23:31:06.498Z,9.98
2022-12-31T23:33:33.927Z,7.40
2022-12-31T23:36:06.089Z,9.45
2022-12-31T23:38:33.489Z,11.73
2022-12-31T23:41:00.837Z,11.00
2022-12-31T23:43:28.169Z,14.65
2022-12-31T23:45:55.713Z,12.63
2022-12-31T23:48:23.121Z,11.43
2022-12-31T23:50:53.933Z,8.38
2022-12-31T23:53:23.241Z,17.38
2022-12-31T23:55:51.476Z,13.70
2022-12-31T23:58:19.018Z,12.02
